Largs, United Kingdom
Current Conditions -  °F | °C
As of 9:50 PM on Thursday 27 Nov 2014 (Local Time) from EGPF Reporting Station
Haze Haze  
Wind Chill: 46°   Ceiling: 2400
Heat Index: 46°   Visibility: 3mi
Dew Point: 45°   Wind: 2mph
Humidity: 93%   Direction: NA
Pressure: 29.59"   Gusts: NA
Location:  55.8°N, 4.86°W
Report Text: EGPF 272150Z AUTO VRB02KT 5000 BR BKN024 08/07 Q1002
Loading
Personal Weather Stations






























Interactive Weather Map New forecast layout! Learn more

10-Day Weather Forecast

Advertisements
Track Severe Weather on mobile